WetterOnline ( https://www.wetteronline.ch )

Wetter aktuell Kaltennordheim

Aktuelles Wetter: Meiningen (453m)

6-stündlich | Neueste Meldungen
Ortszeit Temperatur Wetter
Mo, 08.03. 1:00 -1.4° C bedeckt
So, 07.03. 19:00 0.7° C wolkenlos
So, 07.03. 13:00 4.6° C wolkenlos
So, 07.03. 7:00 -6.3° C wolkig
So, 07.03. 1:00 -3.6° C wolkenlos
Sa, 06.03. 19:00 1.1° C wolkig
Sa, 06.03. 13:00 3.5° C leicht bewölkt
Sa, 06.03. 7:00 -5.9° C wolkenlos
Ortszeit Temperatur Wetter
Mo, 08.03. 1:00 -1.4° C bedeckt
Mo, 08.03. 0:50 -1.4° C bedeckt
Mo, 08.03. 0:40 -1.3° C bedeckt
Mo, 08.03. 0:30 -1.5° C bedeckt
Mo, 08.03. 0:20 -1.5° C bedeckt
Mo, 08.03. 0:10 -1.7° C bedeckt
Mo, 08.03. 0:00 -1.9° C wolkig
So, 07.03. 23:30 -2.2° C fast wolkenlos
So, 07.03. 23:00 -2.0° C wolkenlos
So, 07.03. 22:30 -1.8° C wolkenlos
So, 07.03. 22:00 -1.9° C wolkenlos
Ortszeit Relative Feuchte Sichtweite
Mo, 08.03. 1:00 76% 40 km
So, 07.03. 19:00 68% 40 km
So, 07.03. 13:00 45% 55 km
So, 07.03. 7:00 88% 30 km
So, 07.03. 1:00 75% 35 km
Sa, 06.03. 19:00 48% 50 km
Sa, 06.03. 13:00 47% 60 km
Sa, 06.03. 7:00 92% 35 km
Ortszeit Relative Feuchte Sichtweite
Mo, 08.03. 1:00 76% 40 km
Mo, 08.03. 0:50 76% -
Mo, 08.03. 0:40 74% -
Mo, 08.03. 0:30 75% 45 km
Mo, 08.03. 0:20 75% -
Mo, 08.03. 0:10 76% -
Mo, 08.03. 0:00 77% 40 km
So, 07.03. 23:30 78% 45 km
So, 07.03. 23:00 77% 40 km
So, 07.03. 22:30 77% 45 km
So, 07.03. 22:00 77% 35 km
Ortszeit Niederschlagsmenge Niederschlagsart
Mo, 08.03. 1:00 0.0 l/m2 in 6 Std. -
So, 07.03. 19:00 0.0 l/m2 in 12 Std. -
So, 07.03. 13:00 0.0 l/m2 in 6 Std. -
So, 07.03. 7:00 0.0 l/m2 in 12 Std. -
So, 07.03. 1:00 0.0 l/m2 in 6 Std. -
Sa, 06.03. 19:00 0.0 l/m2 in 12 Std. -
Sa, 06.03. 13:00 0.0 l/m2 in 6 Std. -
Sa, 06.03. 7:00 0.0 l/m2 in 12 Std. -
Ortszeit Niederschlagsmenge Niederschlagsart
Mo, 08.03. 1:00 0.0 l/m2 in 1 Std. -
Mo, 08.03. 0:50 keine Meldung -
Mo, 08.03. 0:40 keine Meldung -
Mo, 08.03. 0:30 0.0 l/m2 in 1 Std. -
Mo, 08.03. 0:20 keine Meldung -
Mo, 08.03. 0:10 keine Meldung -
Mo, 08.03. 0:00 0.0 l/m2 in 1 Std. -
So, 07.03. 23:30 0.0 l/m2 in 1 Std. -
So, 07.03. 23:00 0.0 l/m2 in 1 Std. -
So, 07.03. 22:30 0.0 l/m2 in 1 Std. -
So, 07.03. 22:00 0.0 l/m2 in 1 Std. -
Ortszeit Stärke Spitze Richtung
km/h Bft. km/h Grad Sektor
Mo, 08.03. 1:00 11 2 25 320° NW
So, 07.03. 19:00 22 4 32 340° N
So, 07.03. 13:00 9 2 20 330° NW
So, 07.03. 7:00 0 0 22 - -
So, 07.03. 1:00 0 0 29 - -
Sa, 06.03. 19:00 7 2 25 340° N
Sa, 06.03. 13:00 11 2 22 360° N
Sa, 06.03. 7:00 0 0 22 - -
Ortszeit Stärke Spitze Richtung
km/h Bft. km/h Grad Sektor
Mo, 08.03. 1:00 11 2 18 320° NW
Mo, 08.03. 0:50 11 2 - 320° NW
Mo, 08.03. 0:40 11 2 - 330° NW
Mo, 08.03. 0:30 14 3 18 320° NW
Mo, 08.03. 0:20 14 3 - 320° NW
Mo, 08.03. 0:10 11 2 - 320° NW
Mo, 08.03. 0:00 11 2 14 320° NW
So, 07.03. 23:30 11 2 14 310° NW
So, 07.03. 23:00 11 2 22 320° NW
So, 07.03. 22:30 14 3 22 330° NW
So, 07.03. 22:00 11 2 18 320° NW
Ortszeit Untergrenze Bedeckung Gattung
total tief tief mittel hoch
Mo, 08.03. 1:00 960 m 8/8 8/8 - - -
So, 07.03. 19:00 - 0/8 0/8 - - -
So, 07.03. 13:00 - 0/8 0/8 - - -
So, 07.03. 7:00 9000 m 8/8 0/8 - - -
So, 07.03. 1:00 - 0/8 0/8 - - -
Sa, 06.03. 19:00 8100 m 8/8 0/8 - - -
Sa, 06.03. 13:00 8100 m 7/8 0/8 - - -
Sa, 06.03. 7:00 - 0/8 0/8 - - -
Ortszeit Bedeckungsgrad in Achtel und Wolkenuntergrenze
Mo, 08.03. 1:00 8(960m)
Mo, 08.03. 0:50 8(960m)
Mo, 08.03. 0:40 8(960m)
Mo, 08.03. 0:30 8(990m)
Mo, 08.03. 0:20 8(990m)
Mo, 08.03. 0:10 8(990m)
Mo, 08.03. 0:00 6(1020m)
So, 07.03. 23:30 1(8400m) 2(8400m)
So, 07.03. 23:00 keine Wolken
So, 07.03. 22:30 keine Wolken
So, 07.03. 22:00 keine Wolken
Ortszeit Luftdruck NN (hPa) Tendenz (hPa in 3 Std.)
Mo, 08.03. 1:00 1022 - 0,5
So, 07.03. 19:00 1022 + 0,3
So, 07.03. 13:00 1023 - 1,7
So, 07.03. 7:00 1029 - 0,3
So, 07.03. 1:00 1031 - 0,9
Sa, 06.03. 19:00 1031 - 0,7
Sa, 06.03. 13:00 1034 - 0,5
Sa, 06.03. 7:00 1036 + 0,3
Ortszeit Luftdruck NN (hPa) Tendenz (hPa in 3 Std.)
Mo, 08.03. 1:00 1022 - 0,5
Mo, 08.03. 0:50 1022 keine Meldung
Mo, 08.03. 0:40 1022 keine Meldung
Mo, 08.03. 0:30 1023 - 0,2
Mo, 08.03. 0:20 1023 keine Meldung
Mo, 08.03. 0:10 1023 keine Meldung
Mo, 08.03. 0:00 1023 - 0,1
So, 07.03. 23:30 1023 0,0
So, 07.03. 23:00 1023 + 0,2
So, 07.03. 22:30 1023 + 0,2
So, 07.03. 22:00 1023 + 0,5
Ortszeit Schneehöhe (cm)
Mo, 08.03. 1:00 0
So, 07.03. 19:00 0
So, 07.03. 13:00 0
So, 07.03. 7:00 0
So, 07.03. 1:00 0
Sa, 06.03. 19:00 0
Sa, 06.03. 13:00 0
Sa, 06.03. 7:00 0
Ortszeit Schneehöhe (cm)
Mo, 08.03. 1:00 0
Mo, 08.03. 0:50 0
Mo, 08.03. 0:40 0
Mo, 08.03. 0:30 0
Mo, 08.03. 0:20 0
Mo, 08.03. 0:10 0
Mo, 08.03. 0:00 0
So, 07.03. 23:30 0
So, 07.03. 23:00 0
So, 07.03. 22:30 0
So, 07.03. 22:00 0
Link zu dieser Seite / Seite empfehlen

Das Wetter in ...